sensor_id;sensor_type;location;lat;lon;timestamp;pressure;altitude;pressure_sealevel;temperature;humidity
66430;BME280;53242;51.694;10.006;2022-11-20T00:00:46;99272.63;;;-2.29;72.07
66430;BME280;53242;51.694;10.006;2022-11-20T00:03:08;99280.63;;;-2.44;72.40
66430;BME280;53242;51.694;10.006;2022-11-20T00:05:32;99269.38;;;-2.32;72.03
66430;BME280;53242;51.694;10.006;2022-11-20T00:07:55;99270.06;;;-2.29;71.19
66430;BME280;53242;51.694;10.006;2022-11-20T00:10:17;99274.28;;;-2.40;72.04
66430;BME280;53242;51.694;10.006;2022-11-20T00:12:40;99276.63;;;-2.59;73.05
66430;BME280;53242;51.694;10.006;2022-11-20T00:15:03;99273.47;;;-2.52;72.74
66430;BME280;53242;51.694;10.006;2022-11-20T00:17:25;99268.28;;;-2.63;73.02
66430;BME280;53242;51.694;10.006;2022-11-20T00:19:48;99267.00;;;-2.57;72.91
66430;BME280;53242;51.694;10.006;2022-11-20T00:22:10;99266.19;;;-2.46;72.08
66430;BME280;53242;51.694;10.006;2022-11-20T00:24:32;99267.50;;;-2.41;71.75
66430;BME280;53242;51.694;10.006;2022-11-20T00:26:55;99268.16;;;-2.50;71.79
66430;BME280;53242;51.694;10.006;2022-11-20T00:29:17;99271.22;;;-2.45;71.79
66430;BME280;53242;51.694;10.006;2022-11-20T00:31:40;99271.81;;;-2.64;72.37
66430;BME280;53242;51.694;10.006;2022-11-20T00:34:02;99271.69;;;-2.62;72.75
66430;BME280;53242;51.694;10.006;2022-11-20T00:36:26;99273.47;;;-2.40;71.96
66430;BME280;53242;51.694;10.006;2022-11-20T00:38:53;99263.00;;;-2.39;72.03
66430;BME280;53242;51.694;10.006;2022-11-20T00:41:16;99270.53;;;-2.58;72.53
66430;BME280;53242;51.694;10.006;2022-11-20T00:43:38;99263.47;;;-2.68;73.04
66430;BME280;53242;51.694;10.006;2022-11-20T00:46:03;99270.75;;;-2.61;72.41
66430;BME280;53242;51.694;10.006;2022-11-20T00:48:27;99271.34;;;-2.46;71.15
66430;BME280;53242;51.694;10.006;2022-11-20T00:50:49;99272.53;;;-2.51;71.61
66430;BME280;53242;51.694;10.006;2022-11-20T00:53:12;99277.47;;;-2.59;71.91
66430;BME280;53242;51.694;10.006;2022-11-20T00:55:34;99275.16;;;-2.86;72.61
66430;BME280;53242;51.694;10.006;2022-11-20T00:57:56;99272.94;;;-2.91;73.08
66430;BME280;53242;51.694;10.006;2022-11-20T01:00:19;99268.13;;;-2.84;73.29
66430;BME280;53242;51.694;10.006;2022-11-20T01:02:41;99269.06;;;-2.85;73.48
66430;BME280;53242;51.694;10.006;2022-11-20T01:05:04;99274.00;;;-2.71;72.85
66430;BME280;53242;51.694;10.006;2022-11-20T01:07:26;99267.78;;;-2.68;72.36
66430;BME280;53242;51.694;10.006;2022-11-20T01:09:49;99269.00;;;-2.61;71.95
66430;BME280;53242;51.694;10.006;2022-11-20T01:12:11;99278.72;;;-2.65;71.92
66430;BME280;53242;51.694;10.006;2022-11-20T01:14:33;99271.34;;;-3.05;72.68
66430;BME280;53242;51.694;10.006;2022-11-20T01:16:56;99264.63;;;-2.83;72.67
66430;BME280;53242;51.694;10.006;2022-11-20T01:19:21;99258.47;;;-2.93;72.91
66430;BME280;53242;51.694;10.006;2022-11-20T01:21:45;99260.72;;;-2.89;72.62
66430;BME280;53242;51.694;10.006;2022-11-20T01:24:12;99261.91;;;-2.82;72.24
66430;BME280;53242;51.694;10.006;2022-11-20T01:26:36;99255.13;;;-2.60;71.81
66430;BME280;53242;51.694;10.006;2022-11-20T01:29:00;99254.41;;;-2.73;71.64
66430;BME280;53242;51.694;10.006;2022-11-20T01:31:28;99249.13;;;-2.83;72.15
66430;BME280;53242;51.694;10.006;2022-11-20T01:33:53;99243.94;;;-2.83;71.69
66430;BME280;53242;51.694;10.006;2022-11-20T01:36:17;99240.84;;;-3.00;72.07
66430;BME280;53242;51.694;10.006;2022-11-20T01:38:39;99232.75;;;-2.95;72.20
66430;BME280;53242;51.694;10.006;2022-11-20T01:41:02;99226.19;;;-2.99;72.40
66430;BME280;53242;51.694;10.006;2022-11-20T01:43:25;99220.19;;;-3.00;72.64
66430;BME280;53242;51.694;10.006;2022-11-20T01:46:00;99215.53;;;-2.83;71.71
66430;BME280;53242;51.694;10.006;2022-11-20T01:48:26;99219.19;;;-2.86;71.86
66430;BME280;53242;51.694;10.006;2022-11-20T01:50:52;99213.53;;;-2.79;71.72
66430;BME280;53242;51.694;10.006;2022-11-20T01:53:18;99212.56;;;-2.90;71.87
66430;BME280;53242;51.694;10.006;2022-11-20T01:55:50;99214.78;;;-2.97;71.18
66430;BME280;53242;51.694;10.006;2022-11-20T01:58:14;99221.59;;;-3.07;72.26
66430;BME280;53242;51.694;10.006;2022-11-20T02:00:37;99219.00;;;-3.07;72.01
66430;BME280;53242;51.694;10.006;2022-11-20T02:03:07;99219.81;;;-3.18;73.10
66430;BME280;53242;51.694;10.006;2022-11-20T02:05:38;99219.00;;;-3.07;72.19
66430;BME280;53242;51.694;10.006;2022-11-20T02:08:03;99215.59;;;-3.07;73.09
66430;BME280;53242;51.694;10.006;2022-11-20T02:10:27;99205.97;;;-3.17;73.68
66430;BME280;53242;51.694;10.006;2022-11-20T02:12:50;99209.72;;;-3.09;72.89
66430;BME280;53242;51.694;10.006;2022-11-20T02:15:33;99213.16;;;-3.09;72.73
66430;BME280;53242;51.694;10.006;2022-11-20T02:17:55;99212.66;;;-3.14;72.90
66430;BME280;53242;51.694;10.006;2022-11-20T02:20:18;99209.72;;;-3.09;73.20
66430;BME280;53242;51.694;10.006;2022-11-20T02:23:11;99210.28;;;-3.17;72.92
66430;BME280;53242;51.694;10.006;2022-11-20T02:25:35;99213.16;;;-3.09;72.01
66430;BME280;53242;51.694;10.006;2022-11-20T02:27:58;99206.31;;;-3.21;72.58
66430;BME280;53242;51.694;10.006;2022-11-20T02:30:21;99208.31;;;-3.14;72.64
66430;BME280;53242;51.694;10.006;2022-11-20T02:32:43;99205.69;;;-3.25;73.69
66430;BME280;53242;51.694;10.006;2022-11-20T02:37:32;99215.81;;;-3.22;73.40
66430;BME280;53242;51.694;10.006;2022-11-20T02:39:57;99215.56;;;-3.19;72.86
66430;BME280;53242;51.694;10.006;2022-11-20T02:42:19;99213.41;;;-3.36;73.29
66430;BME280;53242;51.694;10.006;2022-11-20T02:44:42;99202.91;;;-3.22;73.27
66430;BME280;53242;51.694;10.006;2022-11-20T02:47:04;99200.28;;;-3.33;73.43
66430;BME280;53242;51.694;10.006;2022-11-20T02:49:26;99193.81;;;-3.39;73.71
66430;BME280;53242;51.694;10.006;2022-11-20T02:51:49;99190.66;;;-3.42;73.43
66430;BME280;53242;51.694;10.006;2022-11-20T02:54:11;99186.69;;;-3.24;73.58
66430;BME280;53242;51.694;10.006;2022-11-20T02:56:34;99180.84;;;-3.15;72.79
66430;BME280;53242;51.694;10.006;2022-11-20T02:58:56;99189.75;;;-3.19;72.58
66430;BME280;53242;51.694;10.006;2022-11-20T03:01:19;99191.38;;;-3.29;72.69
66430;BME280;53242;51.694;10.006;2022-11-20T03:03:41;99195.25;;;-3.23;72.93
66430;BME280;53242;51.694;10.006;2022-11-20T03:06:03;99204.66;;;-3.22;73.09
66430;BME280;53242;51.694;10.006;2022-11-20T03:08:26;99201.38;;;-3.24;73.03
66430;BME280;53242;51.694;10.006;2022-11-20T03:10:48;99201.81;;;-3.31;73.15
66430;BME280;53242;51.694;10.006;2022-11-20T03:13:11;99192.53;;;-3.33;73.16
66430;BME280;53242;51.694;10.006;2022-11-20T03:15:35;99199.00;;;-3.27;73.31
66430;BME280;53242;51.694;10.006;2022-11-20T03:17:58;99198.41;;;-3.31;72.49
66430;BME280;53242;51.694;10.006;2022-11-20T03:20:20;99200.16;;;-3.32;72.06
66430;BME280;53242;51.694;10.006;2022-11-20T03:22:43;99191.00;;;-3.36;72.57
66430;BME280;53242;51.694;10.006;2022-11-20T03:25:05;99187.50;;;-3.35;71.88
66430;BME280;53242;51.694;10.006;2022-11-20T03:27:32;99188.44;;;-3.36;72.35
66430;BME280;53242;51.694;10.006;2022-11-20T03:33:10;99200.47;;;-3.48;71.99
66430;BME280;53242;51.694;10.006;2022-11-20T03:35:32;99204.84;;;-3.37;71.29
66430;BME280;53242;51.694;10.006;2022-11-20T03:37:55;99200.13;;;-3.43;71.37
66430;BME280;53242;51.694;10.006;2022-11-20T03:40:17;99196.75;;;-3.68;72.38
66430;BME280;53242;51.694;10.006;2022-11-20T03:42:39;99188.13;;;-3.55;72.08
66430;BME280;53242;51.694;10.006;2022-11-20T03:45:08;99180.25;;;-3.65;72.34
66430;BME280;53242;51.694;10.006;2022-11-20T03:47:30;99177.09;;;-3.57;72.26
66430;BME280;53242;51.694;10.006;2022-11-20T03:49:53;99176.88;;;-3.54;72.39
66430;BME280;53242;51.694;10.006;2022-11-20T03:52:15;99169.75;;;-3.75;72.77
66430;BME280;53242;51.694;10.006;2022-11-20T03:54:38;99164.94;;;-3.55;72.47
66430;BME280;53242;51.694;10.006;2022-11-20T03:57:00;99169.13;;;-3.54;72.50
66430;BME280;53242;51.694;10.006;2022-11-20T03:59:22;99169.53;;;-3.48;72.50
66430;BME280;53242;51.694;10.006;2022-11-20T04:01:45;99160.53;;;-3.31;71.12
66430;BME280;53242;51.694;10.006;2022-11-20T04:04:07;99161.44;;;-3.43;70.97
66430;BME280;53242;51.694;10.006;2022-11-20T04:06:33;99158.72;;;-3.53;71.44
66430;BME280;53242;51.694;10.006;2022-11-20T04:08:57;99162.06;;;-3.64;71.24
66430;BME280;53242;51.694;10.006;2022-11-20T04:11:22;99160.22;;;-3.86;72.19
66430;BME280;53242;51.694;10.006;2022-11-20T04:13:47;99153.84;;;-3.69;71.66
66430;BME280;53242;51.694;10.006;2022-11-20T04:16:10;99152.84;;;-3.79;70.90
66430;BME280;53242;51.694;10.006;2022-11-20T04:18:32;99155.63;;;-3.93;72.00
66430;BME280;53242;51.694;10.006;2022-11-20T04:20:57;99151.75;;;-3.64;71.39
66430;BME280;53242;51.694;10.006;2022-11-20T04:23:19;99142.78;;;-3.82;71.90
66430;BME280;53242;51.694;10.006;2022-11-20T04:25:42;99146.66;;;-3.76;72.10
66430;BME280;53242;51.694;10.006;2022-11-20T04:28:04;99143.03;;;-3.74;71.49
66430;BME280;53242;51.694;10.006;2022-11-20T04:30:26;99143.53;;;-3.69;71.59
66430;BME280;53242;51.694;10.006;2022-11-20T04:32:49;99142.72;;;-3.69;71.61
66430;BME280;53242;51.694;10.006;2022-11-20T04:35:11;99144.44;;;-3.70;71.78
66430;BME280;53242;51.694;10.006;2022-11-20T04:37:34;99153.53;;;-3.88;71.81
66430;BME280;53242;51.694;10.006;2022-11-20T04:39:56;99151.44;;;-3.83;72.22
66430;BME280;53242;51.694;10.006;2022-11-20T04:42:18;99148.97;;;-3.60;71.42
66430;BME280;53242;51.694;10.006;2022-11-20T04:44:53;99146.94;;;-3.68;70.47
66430;BME280;53242;51.694;10.006;2022-11-20T04:47:15;99149.47;;;-3.80;70.68
66430;BME280;53242;51.694;10.006;2022-11-20T04:49:38;99147.94;;;-3.82;71.05
66430;BME280;53242;51.694;10.006;2022-11-20T04:52:00;99147.50;;;-3.76;70.38
66430;BME280;53242;51.694;10.006;2022-11-20T04:54:23;99150.16;;;-3.77;70.58
66430;BME280;53242;51.694;10.006;2022-11-20T04:56:48;99158.63;;;-3.75;70.80
66430;BME280;53242;51.694;10.006;2022-11-20T04:59:11;99149.31;;;-3.89;71.49
66430;BME280;53242;51.694;10.006;2022-11-20T05:01:33;99147.63;;;-4.02;72.03
66430;BME280;53242;51.694;10.006;2022-11-20T05:03:56;99157.22;;;-4.04;72.87
66430;BME280;53242;51.694;10.006;2022-11-20T05:06:20;99154.34;;;-3.88;71.59
66430;BME280;53242;51.694;10.006;2022-11-20T05:08:43;99160.03;;;-3.96;71.60
66430;BME280;53242;51.694;10.006;2022-11-20T05:11:09;99166.75;;;-3.93;71.32
66430;BME280;53242;51.694;10.006;2022-11-20T05:13:32;99157.97;;;-3.90;71.65
66430;BME280;53242;51.694;10.006;2022-11-20T05:15:54;99163.94;;;-4.14;71.61
66430;BME280;53242;51.694;10.006;2022-11-20T05:18:17;99167.09;;;-3.98;71.14
66430;BME280;53242;51.694;10.006;2022-11-20T05:20:39;99164.25;;;-4.19;72.57
66430;BME280;53242;51.694;10.006;2022-11-20T05:23:02;99155.63;;;-3.93;71.58
66430;BME280;53242;51.694;10.006;2022-11-20T05:25:24;99155.63;;;-3.93;70.58
66430;BME280;53242;51.694;10.006;2022-11-20T05:27:47;99152.22;;;-3.94;71.58
66430;BME280;53242;51.694;10.006;2022-11-20T05:30:10;99157.69;;;-3.99;70.91
66430;BME280;53242;51.694;10.006;2022-11-20T05:32:32;99145.03;;;-4.02;71.10
66430;BME280;53242;51.694;10.006;2022-11-20T05:34:55;99141.25;;;-4.09;71.69
66430;BME280;53242;51.694;10.006;2022-11-20T05:37:17;99140.03;;;-4.16;70.75
66430;BME280;53242;51.694;10.006;2022-11-20T05:39:40;99142.97;;;-3.97;69.85
66430;BME280;53242;51.694;10.006;2022-11-20T05:42:02;99146.75;;;-4.26;71.83
66430;BME280;53242;51.694;10.006;2022-11-20T05:44:43;99143.22;;;-4.13;71.16
66430;BME280;53242;51.694;10.006;2022-11-20T05:47:05;99147.88;;;-4.18;71.37
66430;BME280;53242;51.694;10.006;2022-11-20T05:49:28;99149.41;;;-4.15;70.91
66430;BME280;53242;51.694;10.006;2022-11-20T05:51:50;99146.72;;;-4.14;71.39
66430;BME280;53242;51.694;10.006;2022-11-20T05:54:13;99151.56;;;-4.09;71.56
66430;BME280;53242;51.694;10.006;2022-11-20T05:56:35;99150.03;;;-4.11;70.75
66430;BME280;53242;51.694;10.006;2022-11-20T05:58:57;99147.69;;;-4.15;71.51
66430;BME280;53242;51.694;10.006;2022-11-20T06:01:22;99152.06;;;-4.04;71.24
66430;BME280;53242;51.694;10.006;2022-11-20T06:03:45;99150.38;;;-4.29;71.60
66430;BME280;53242;51.694;10.006;2022-11-20T06:06:09;99148.25;;;-4.35;71.74
66430;BME280;53242;51.694;10.006;2022-11-20T06:08:32;99151.28;;;-4.17;71.00
66430;BME280;53242;51.694;10.006;2022-11-20T06:10:54;99151.19;;;-4.16;70.55
66430;BME280;53242;51.694;10.006;2022-11-20T06:13:17;99143.44;;;-4.16;70.37
66430;BME280;53242;51.694;10.006;2022-11-20T06:15:39;99143.16;;;-4.24;71.15
66430;BME280;53242;51.694;10.006;2022-11-20T06:18:02;99148.38;;;-4.13;70.04
66430;BME280;53242;51.694;10.006;2022-11-20T06:20:24;99145.53;;;-4.21;69.77
66430;BME280;53242;51.694;10.006;2022-11-20T06:22:46;99138.09;;;-4.25;70.66
66430;BME280;53242;51.694;10.006;2022-11-20T06:25:09;99133.59;;;-4.35;70.36
66430;BME280;53242;51.694;10.006;2022-11-20T06:27:31;99155.88;;;-4.34;70.51
66430;BME280;53242;51.694;10.006;2022-11-20T06:29:54;99144.13;;;-4.38;71.76
66430;BME280;53242;51.694;10.006;2022-11-20T06:32:16;99139.03;;;-4.26;71.06
66430;BME280;53242;51.694;10.006;2022-11-20T06:34:38;99138.88;;;-4.36;71.33
66430;BME280;53242;51.694;10.006;2022-11-20T06:37:01;99143.88;;;-4.22;70.39
66430;BME280;53242;51.694;10.006;2022-11-20T06:39:23;99145.63;;;-4.22;70.22
66430;BME280;53242;51.694;10.006;2022-11-20T06:41:46;99142.00;;;-4.44;70.90
66430;BME280;53242;51.694;10.006;2022-11-20T06:44:08;99140.47;;;-4.22;70.65
66430;BME280;53242;51.694;10.006;2022-11-20T06:46:31;99136.78;;;-4.31;70.32
66430;BME280;53242;51.694;10.006;2022-11-20T06:48:53;99126.41;;;-4.42;70.48
66430;BME280;53242;51.694;10.006;2022-11-20T06:51:17;99135.25;;;-4.34;70.88
66430;BME280;53242;51.694;10.006;2022-11-20T06:53:40;99130.66;;;-4.41;70.63
66430;BME280;53242;51.694;10.006;2022-11-20T06:56:03;99133.00;;;-4.38;70.67
66430;BME280;53242;51.694;10.006;2022-11-20T06:58:31;99128.72;;;-4.26;70.65
66430;BME280;53242;51.694;10.006;2022-11-20T07:01:00;99123.69;;;-4.28;70.60
66430;BME280;53242;51.694;10.006;2022-11-20T07:03:23;99121.84;;;-4.26;70.72
66430;BME280;53242;51.694;10.006;2022-11-20T07:05:45;99121.50;;;-4.21;70.74
66430;BME280;53242;51.694;10.006;2022-11-20T07:08:09;99122.00;;;-4.40;70.24
66430;BME280;53242;51.694;10.006;2022-11-20T07:10:32;99127.41;;;-4.32;70.27
66430;BME280;53242;51.694;10.006;2022-11-20T07:12:54;99131.03;;;-4.35;69.74
66430;BME280;53242;51.694;10.006;2022-11-20T07:15:18;99139.53;;;-4.46;71.39
66430;BME280;53242;51.694;10.006;2022-11-20T07:17:40;99134.50;;;-4.23;69.99
66430;BME280;53242;51.694;10.006;2022-11-20T07:20:03;99141.94;;;-4.31;70.12
66430;BME280;53242;51.694;10.006;2022-11-20T07:22:25;99143.59;;;-4.30;70.66
66430;BME280;53242;51.694;10.006;2022-11-20T07:24:48;99136.91;;;-4.33;71.24
66430;BME280;53242;51.694;10.006;2022-11-20T07:27:11;99138.03;;;-4.37;70.94
66430;BME280;53242;51.694;10.006;2022-11-20T07:29:33;99145.56;;;-4.34;71.23
66430;BME280;53242;51.694;10.006;2022-11-20T07:31:55;99139.03;;;-4.26;70.73
66430;BME280;53242;51.694;10.006;2022-11-20T07:34:18;99146.56;;;-4.23;71.23
66430;BME280;53242;51.694;10.006;2022-11-20T07:36:42;99143.09;;;-4.11;70.38
66430;BME280;53242;51.694;10.006;2022-11-20T07:39:04;99132.09;;;-4.13;70.73
66430;BME280;53242;51.694;10.006;2022-11-20T07:41:27;99141.25;;;-4.09;70.75
66430;BME280;53242;51.694;10.006;2022-11-20T07:43:49;99145.59;;;-4.09;71.14
66430;BME280;53242;51.694;10.006;2022-11-20T07:46:12;99145.41;;;-4.19;70.85
66430;BME280;53242;51.694;10.006;2022-11-20T07:48:34;99145.78;;;-4.13;71.35
66430;BME280;53242;51.694;10.006;2022-11-20T07:50:57;99147.81;;;-4.05;71.38
66430;BME280;53242;51.694;10.006;2022-11-20T07:53:19;99149.91;;;-4.10;71.91
66430;BME280;53242;51.694;10.006;2022-11-20T07:55:43;99148.59;;;-3.91;70.47
66430;BME280;53242;51.694;10.006;2022-11-20T07:58:06;99147.72;;;-4.03;71.32
66430;BME280;53242;51.694;10.006;2022-11-20T08:00:28;99144.97;;;-3.89;71.44
66430;BME280;53242;51.694;10.006;2022-11-20T08:02:51;99145.41;;;-3.95;71.77
66430;BME280;53242;51.694;10.006;2022-11-20T08:05:13;99156.03;;;-4.00;71.22
66430;BME280;53242;51.694;10.006;2022-11-20T08:07:40;99159.56;;;-4.01;71.25
66430;BME280;53242;51.694;10.006;2022-11-20T08:10:03;99163.84;;;-4.13;72.01
66430;BME280;53242;51.694;10.006;2022-11-20T08:12:26;99154.09;;;-3.96;71.65
66430;BME280;53242;51.694;10.006;2022-11-20T08:15:08;99160.88;;;-3.95;71.64
66430;BME280;53242;51.694;10.006;2022-11-20T08:17:30;99172.66;;;-4.04;71.61
66430;BME280;53242;51.694;10.006;2022-11-20T08:19:52;99171.50;;;-4.00;71.46
66430;BME280;53242;51.694;10.006;2022-11-20T08:22:15;99169.56;;;-3.96;70.92
66430;BME280;53242;51.694;10.006;2022-11-20T08:24:39;99167.28;;;-4.01;71.54
66430;BME280;53242;51.694;10.006;2022-11-20T08:27:02;99165.50;;;-3.87;71.73
66430;BME280;53242;51.694;10.006;2022-11-20T08:29:26;99167.72;;;-3.83;71.50
66430;BME280;53242;51.694;10.006;2022-11-20T08:31:48;99178.28;;;-3.86;71.58
66430;BME280;53242;51.694;10.006;2022-11-20T08:34:11;99176.78;;;-3.77;72.11
66430;BME280;53242;51.694;10.006;2022-11-20T08:36:33;99173.91;;;-3.85;72.48
66430;BME280;53242;51.694;10.006;2022-11-20T08:38:57;99175.38;;;-3.81;73.73
66430;BME280;53242;51.694;10.006;2022-11-20T08:41:20;99170.34;;;-3.71;73.91
66430;BME280;53242;51.694;10.006;2022-11-20T08:43:45;99165.91;;;-3.69;75.81
66430;BME280;53242;51.694;10.006;2022-11-20T08:46:08;99174.81;;;-3.38;75.86
66430;BME280;53242;51.694;10.006;2022-11-20T08:48:30;99167.34;;;-3.29;77.00
66430;BME280;53242;51.694;10.006;2022-11-20T08:50:52;99172.97;;;-3.13;76.39
66430;BME280;53242;51.694;10.006;2022-11-20T08:53:15;99174.88;;;-3.15;77.51
66430;BME280;53242;51.694;10.006;2022-11-20T08:55:37;99179.78;;;-3.12;77.06
66430;BME280;53242;51.694;10.006;2022-11-20T08:58:05;99176.69;;;-2.82;77.03
66430;BME280;53242;51.694;10.006;2022-11-20T09:00:28;99171.97;;;-2.99;77.66
66430;BME280;53242;51.694;10.006;2022-11-20T09:02:50;99164.00;;;-2.73;76.94
66430;BME280;53242;51.694;10.006;2022-11-20T09:05:14;99166.56;;;-2.62;76.97
66430;BME280;53242;51.694;10.006;2022-11-20T09:07:36;99164.22;;;-2.42;76.37
66430;BME280;53242;51.694;10.006;2022-11-20T09:09:59;99163.38;;;-2.32;75.85
66430;BME280;53242;51.694;10.006;2022-11-20T09:12:21;99167.59;;;-2.19;75.40
66430;BME280;53242;51.694;10.006;2022-11-20T09:14:43;99157.97;;;-2.40;76.53
66430;BME280;53242;51.694;10.006;2022-11-20T09:17:06;99158.94;;;-2.41;76.08
66430;BME280;53242;51.694;10.006;2022-11-20T09:19:29;99158.94;;;-2.41;76.34
66430;BME280;53242;51.694;10.006;2022-11-20T09:21:52;99153.50;;;-2.15;75.73
66430;BME280;53242;51.694;10.006;2022-11-20T09:24:14;99152.75;;;-2.06;75.39
66430;BME280;53242;51.694;10.006;2022-11-20T09:26:36;99147.19;;;-2.01;75.12
66430;BME280;53242;51.694;10.006;2022-11-20T09:28:59;99142.00;;;-1.90;74.69
66430;BME280;53242;51.694;10.006;2022-11-20T09:31:23;99144.09;;;-1.84;74.74
66430;BME280;53242;51.694;10.006;2022-11-20T09:33:46;99140.13;;;-1.88;74.43
66430;BME280;53242;51.694;10.006;2022-11-20T09:36:08;99138.63;;;-1.69;73.92
66430;BME280;53242;51.694;10.006;2022-11-20T09:38:30;99133.91;;;-1.64;74.69
66430;BME280;53242;51.694;10.006;2022-11-20T09:40:57;99132.38;;;-1.67;74.72
66430;BME280;53242;51.694;10.006;2022-11-20T09:46:11;99129.22;;;-1.70;75.61
66430;BME280;53242;51.694;10.006;2022-11-20T09:51:50;99133.47;;;-1.48;74.40
66430;BME280;53242;51.694;10.006;2022-11-20T09:54:20;99126.00;;;-1.62;74.70
66430;BME280;53242;51.694;10.006;2022-11-20T09:56:50;99127.22;;;-1.67;74.97
66430;BME280;53242;51.694;10.006;2022-11-20T09:59:40;99128.63;;;-1.41;75.17
66430;BME280;53242;51.694;10.006;2022-11-20T10:02:02;99121.88;;;-1.33;74.89
66430;BME280;53242;51.694;10.006;2022-11-20T10:04:31;99120.53;;;-1.48;74.96
66430;BME280;53242;51.694;10.006;2022-11-20T10:09:36;99118.56;;;-1.35;75.08
66430;BME280;53242;51.694;10.006;2022-11-20T10:15:24;99112.69;;;-1.16;74.35
66430;BME280;53242;51.694;10.006;2022-11-20T10:23:41;99109.59;;;-1.09;74.16
66430;BME280;53242;51.694;10.006;2022-11-20T10:28:56;99112.41;;;-0.81;72.79
66430;BME280;53242;51.694;10.006;2022-11-20T10:31:33;99109.91;;;-0.93;73.40
66430;BME280;53242;51.694;10.006;2022-11-20T10:33:59;99107.50;;;-0.85;72.95
66430;BME280;53242;51.694;10.006;2022-11-20T10:36:36;99109.41;;;-0.87;72.46
66430;BME280;53242;51.694;10.006;2022-11-20T10:39:05;99105.63;;;-0.73;73.10
66430;BME280;53242;51.694;10.006;2022-11-20T10:41:34;99101.03;;;-0.59;71.89
66430;BME280;53242;51.694;10.006;2022-11-20T10:44:12;99106.75;;;-0.65;72.80
66430;BME280;53242;51.694;10.006;2022-11-20T10:46:41;99108.56;;;-0.56;72.17
66430;BME280;53242;51.694;10.006;2022-11-20T10:49:14;99102.41;;;-0.45;72.16
66430;BME280;53242;51.694;10.006;2022-11-20T10:51:55;99104.84;;;-0.63;71.37
66430;BME280;53242;51.694;10.006;2022-11-20T10:59:47;99096.44;;;-0.46;71.35
66430;BME280;53242;51.694;10.006;2022-11-20T11:02:21;99087.69;;;-0.55;71.70
66430;BME280;53242;51.694;10.006;2022-11-20T11:04:49;99091.38;;;-0.47;71.50
66430;BME280;53242;51.694;10.006;2022-11-20T11:09:40;99078.56;;;-0.20;71.89
66430;BME280;53242;51.694;10.006;2022-11-20T11:12:08;99081.72;;;-0.36;71.57
66430;BME280;53242;51.694;10.006;2022-11-20T11:14:44;99072.56;;;-0.10;71.11
66430;BME280;53242;51.694;10.006;2022-11-20T11:17:19;99065.75;;;-0.21;71.74
66430;BME280;53242;51.694;10.006;2022-11-20T11:19:42;99052.66;;;-0.29;71.68
66430;BME280;53242;51.694;10.006;2022-11-20T11:22:11;99055.53;;;-0.23;72.20
66430;BME280;53242;51.694;10.006;2022-11-20T11:24:37;99055.34;;;-0.31;72.21
66430;BME280;53242;51.694;10.006;2022-11-20T11:27:02;99042.69;;;-0.14;72.22
66430;BME280;53242;51.694;10.006;2022-11-20T11:29:26;99037.66;;;-0.06;72.25
66430;BME280;53242;51.694;10.006;2022-11-20T11:31:51;99031.22;;;-0.22;72.17
66430;BME280;53242;51.694;10.006;2022-11-20T11:34:16;99023.97;;;-0.18;72.81
66430;BME280;53242;51.694;10.006;2022-11-20T11:36:38;99016.06;;;-0.07;72.39
66430;BME280;53242;51.694;10.006;2022-11-20T11:39:02;99020.97;;;-0.04;72.79
66430;BME280;53242;51.694;10.006;2022-11-20T11:41:30;99025.63;;;-0.07;72.84
66430;BME280;53242;51.694;10.006;2022-11-20T11:43:55;99023.28;;;0.09;72.42
66430;BME280;53242;51.694;10.006;2022-11-20T11:46:39;99027.38;;;0.12;72.57
66430;BME280;53242;51.694;10.006;2022-11-20T11:52:07;99013.56;;;0.21;72.80
66430;BME280;53242;51.694;10.006;2022-11-20T11:57:23;99008.50;;;0.29;72.51
66430;BME280;53242;51.694;10.006;2022-11-20T12:05:05;99006.41;;;0.43;72.32
66430;BME280;53242;51.694;10.006;2022-11-20T12:09:54;98997.44;;;0.27;73.02
66430;BME280;53242;51.694;10.006;2022-11-20T12:12:20;99002.88;;;0.44;73.10
66430;BME280;53242;51.694;10.006;2022-11-20T12:14:47;99011.44;;;0.54;72.01
66430;BME280;53242;51.694;10.006;2022-11-20T12:17:13;99002.75;;;0.36;72.60
66430;BME280;53242;51.694;10.006;2022-11-20T12:19:36;99000.22;;;0.54;71.59
66430;BME280;53242;51.694;10.006;2022-11-20T12:22:07;98992.28;;;0.55;71.97
66430;BME280;53242;51.694;10.006;2022-11-20T12:28:38;98990.88;;;0.71;71.96
66430;BME280;53242;51.694;10.006;2022-11-20T12:30:26;98986.50;;;0.71;71.18
66430;BME280;53242;51.694;10.006;2022-11-20T12:32:59;98985.75;;;0.51;71.02
66430;BME280;53242;51.694;10.006;2022-11-20T12:43:31;98986.13;;;0.66;71.16
66430;BME280;53242;51.694;10.006;2022-11-20T12:54:26;98986.78;;;0.96;71.38
66430;BME280;53242;51.694;10.006;2022-11-20T12:57:05;98985.72;;;0.89;70.70
66430;BME280;53242;51.694;10.006;2022-11-20T13:05:06;98970.81;;;0.91;70.65
66430;BME280;53242;51.694;10.006;2022-11-20T13:07:35;98975.66;;;1.04;70.44
66430;BME280;53242;51.694;10.006;2022-11-20T13:09:58;98970.13;;;0.89;70.98
66430;BME280;53242;51.694;10.006;2022-11-20T13:12:41;98975.66;;;1.04;70.53
66430;BME280;53242;51.694;10.006;2022-11-20T13:15:47;98969.28;;;0.98;70.90
66430;BME280;53242;51.694;10.006;2022-11-20T13:18:13;98959.50;;;0.82;71.29
66430;BME280;53242;51.694;10.006;2022-11-20T13:20:36;98961.03;;;1.03;71.13
66430;BME280;53242;51.694;10.006;2022-11-20T13:23:03;98958.88;;;0.98;70.76
66430;BME280;53242;51.694;10.006;2022-11-20T13:27:52;98955.25;;;1.09;70.83
66430;BME280;53242;51.694;10.006;2022-11-20T13:30:18;98951.16;;;1.06;70.70
66430;BME280;53242;51.694;10.006;2022-11-20T13:32:54;98953.78;;;1.06;70.61
66430;BME280;53242;51.694;10.006;2022-11-20T13:35:32;98952.09;;;0.87;71.46
66430;BME280;53242;51.694;10.006;2022-11-20T13:40:27;98947.13;;;0.94;71.49
66430;BME280;53242;51.694;10.006;2022-11-20T13:45:30;98951.22;;;0.96;71.42
66430;BME280;53242;51.694;10.006;2022-11-20T13:47:54;98939.50;;;0.92;71.56
66430;BME280;53242;51.694;10.006;2022-11-20T13:50:17;98934.41;;;1.01;71.42
66430;BME280;53242;51.694;10.006;2022-11-20T13:53:02;98936.34;;;1.17;71.23
66430;BME280;53242;51.694;10.006;2022-11-20T13:55:42;98932.28;;;1.04;71.49
66430;BME280;53242;51.694;10.006;2022-11-20T13:58:24;98937.19;;;0.89;71.48